Time;durP1;ratioP1;P1;durP2;ratioP2;P2;SDS_P1;SDS_P2;PMS_P1;PMS_P2;Temp;Humidity;BMP_temperature;BMP_pressure;BME280_temperature;BME280_humidity;BME280_pressure;Samples;Min_cycle;Max_cycle;Signal;HPM_P1;HPM_P2
2023/04/05 00:01:07;;;;;;;7.13;6.43;;;3.20;99.90;;;2.96;67.52;94505.03;5097775;28;20453;-57
2023/04/05 00:03:34;;;;;;;7.93;6.63;;;3.20;99.90;;;2.98;68.28;94495.41;5088884;28;20557;-57
2023/04/05 00:06:04;;;;;;;7.33;6.50;;;3.20;99.90;;;2.98;67.25;94493.63;5094579;28;20445;-69
2023/04/05 00:08:31;;;;;;;6.80;6.00;;;3.20;99.90;;;3.00;67.33;94491.75;5092221;28;20490;-70
2023/04/05 00:10:58;;;;;;;7.00;6.33;;;3.20;99.90;;;3.01;68.14;94484.81;5104477;28;20457;-56
2023/04/05 00:13:26;;;;;;;6.83;5.40;;;3.30;99.90;;;3.03;66.98;94488.13;5097507;28;20882;-68
2023/04/05 00:15:56;;;;;;;6.37;5.77;;;3.30;99.90;;;3.01;67.03;94488.22;5094941;28;20462;-57
2023/04/05 00:18:25;;;;;;;6.23;5.60;;;3.30;99.90;;;3.02;67.40;94487.31;5091870;28;20477;-57
2023/04/05 00:20:53;;;;;;;6.93;6.33;;;3.30;99.90;;;3.03;67.11;94490.72;5102117;28;20441;-70
2023/04/05 00:23:21;;;;;;;6.97;6.37;;;3.30;99.90;;;3.04;66.98;94487.19;5097896;28;20497;-57
2023/04/05 00:25:49;;;;;;;5.53;5.00;;;3.30;99.90;;;3.05;67.47;94489.69;5098976;28;21132;-58
2023/04/05 00:28:16;;;;;;;5.17;4.67;;;3.30;99.90;;;3.03;66.68;94498.50;5094733;28;20825;-57
2023/04/05 00:30:43;;;;;;;5.97;5.47;;;3.30;99.90;;;3.01;66.18;94488.22;5096697;28;20464;-71
2023/04/05 00:33:13;;;;;;;7.57;4.90;;;3.30;99.90;;;3.00;66.21;94486.56;5096046;28;20492;-67
2023/04/05 00:35:42;;;;;;;4.90;4.60;;;3.30;99.90;;;2.98;66.56;94490.22;5099723;27;20496;-68
2023/04/05 00:38:09;;;;;;;5.60;4.93;;;3.20;99.90;;;2.95;66.79;94496.44;5096207;28;20473;-56
2023/04/05 00:40:36;;;;;;;5.30;4.80;;;3.20;99.90;;;2.94;66.56;94491.34;5097701;28;20516;-73
2023/04/05 00:43:04;;;;;;;5.10;4.60;;;3.20;99.90;;;2.94;66.92;94493.94;5092879;28;20540;-70
2023/04/05 00:45:31;;;;;;;5.30;4.80;;;3.20;99.90;;;2.93;66.44;94487.06;5077173;28;20446;-58
2023/04/05 00:47:59;;;;;;;5.83;5.33;;;3.20;99.90;;;2.90;66.59;94488.13;5081361;28;20480;-70
2023/04/05 00:50:29;;;;;;;4.87;4.37;;;3.20;99.90;;;2.89;67.10;94490.81;5080182;28;20473;-70
2023/04/05 00:52:58;;;;;;;5.20;4.80;;;3.20;99.90;;;2.85;67.22;94493.63;5076777;28;20521;-71
2023/04/05 00:55:26;;;;;;;6.00;5.40;;;3.10;99.90;;;2.86;66.91;94500.47;5076026;28;20467;-57
2023/04/05 00:57:54;;;;;;;4.67;4.27;;;3.10;99.90;;;2.85;66.65;94497.97;5081304;28;20466;-67
2023/04/05 01:00:22;;;;;;;5.10;4.60;;;3.10;99.90;;;2.82;66.54;94505.97;5079942;28;20459;-71
2023/04/05 01:02:52;;;;;;;4.17;3.87;;;3.10;99.90;;;2.81;67.45;94505.16;5082557;28;20583;-58
2023/04/05 01:05:30;;;;;;;5.43;4.43;;;3.10;99.90;;;2.81;67.54;94507.75;5081183;28;20470;-71
2023/04/05 01:08:05;;;;;;;4.10;3.80;;;3.10;99.90;;;2.83;66.65;94505.03;5078967;28;20538;-58
2023/04/05 01:10:37;;;;;;;7.20;4.70;;;3.10;99.90;;;2.82;66.32;94498.19;5080256;28;20468;-69
2023/04/05 01:13:05;;;;;;;4.70;4.30;;;3.10;99.90;;;2.82;67.27;94503.38;5080193;28;20570;-69
2023/04/05 01:15:33;;;;;;;4.80;4.40;;;3.10;99.90;;;2.80;66.93;94503.47;5087227;28;20449;-72
2023/04/05 01:18:01;;;;;;;4.30;3.90;;;3.10;99.90;;;2.79;67.08;94509.63;5080902;28;20573;-56
2023/04/05 01:20:31;;;;;;;4.73;4.43;;;3.10;99.90;;;2.82;66.70;94505.97;5082185;28;20512;-57
2023/04/05 01:23:29;;;;;;;5.80;3.97;;;3.10;99.90;;;2.84;67.00;94502.34;5080479;28;20501;-56
2023/04/05 01:26:30;;;;;;;5.10;4.60;;;3.10;99.90;;;2.85;67.21;94508.34;5078174;28;20961;-70
2023/04/05 01:29:59;;;;;;;3.90;3.60;;;3.10;99.90;;;2.90;66.73;94510.66;5083937;28;21015;-69
2023/04/05 01:32:39;;;;;;;4.10;3.80;;;3.10;99.90;;;2.91;66.85;94510.56;5079462;28;20546;-68
2023/04/05 01:35:12;;;;;;;4.20;3.90;;;3.20;99.90;;;2.92;66.20;94514.00;5075842;28;20522;-71
2023/04/05 01:37:40;;;;;;;4.40;4.00;;;3.20;99.90;;;2.91;66.55;94505.34;5077553;28;20462;-70
2023/04/05 01:40:09;;;;;;;4.47;4.17;;;3.20;99.90;;;2.95;66.93;94508.59;5080683;28;20977;-58
2023/04/05 01:42:37;;;;;;;3.60;3.30;;;3.20;99.90;;;2.95;66.09;94501.63;5083156;28;20478;-70
2023/04/05 01:45:05;;;;;;;3.80;3.60;;;3.20;99.90;;;2.96;65.80;94512.84;5077868;28;20442;-56
2023/04/05 01:47:34;;;;;;;4.00;3.70;;;3.20;99.90;;;2.97;66.38;94514.50;5079703;28;20493;-56
2023/04/05 01:50:01;;;;;;;3.90;3.60;;;3.20;99.90;;;2.97;66.55;94517.94;5076471;28;20450;-69
2023/04/05 01:52:29;;;;;;;2.80;2.70;;;3.20;99.90;;;2.97;65.87;94511.91;5077631;28;20504;-56
2023/04/05 01:54:56;;;;;;;2.60;2.50;;;3.20;99.90;;;2.97;66.23;94510.13;5082096;28;20455;-70
2023/04/05 01:57:24;;;;;;;2.73;2.53;;;3.20;99.90;;;2.98;65.76;94521.38;5083080;28;20460;-68
2023/04/05 01:59:51;;;;;;;2.90;2.80;;;3.20;99.90;;;3.00;65.99;94516.91;5082154;28;20458;-57
2023/04/05 02:02:18;;;;;;;3.60;3.37;;;3.30;99.90;;;3.01;65.60;94518.59;5078053;28;20478;-71
2023/04/05 02:04:47;;;;;;;2.43;2.33;;;3.30;99.90;;;3.00;65.99;94509.13;5076924;28;20465;-57
2023/04/05 02:07:14;;;;;;;3.17;2.90;;;3.30;99.90;;;3.03;65.54;94511.50;5081582;28;20955;-70
2023/04/05 02:09:42;;;;;;;3.00;2.83;;;3.30;99.90;;;3.05;66.49;94510.47;5075335;28;20463;-56
2023/04/05 02:12:09;;;;;;;3.00;2.80;;;3.30;99.90;;;3.09;65.22;94510.28;5082190;28;20493;-70
2023/04/05 02:14:37;;;;;;;3.17;2.83;;;3.30;99.90;;;3.09;65.67;94508.50;5087198;28;20450;-56
2023/04/05 02:17:04;;;;;;;2.50;2.37;;;3.30;99.90;;;3.08;65.63;94509.41;5076514;28;20467;-57
2023/04/05 02:19:39;;;;;;;2.43;2.33;;;3.40;99.90;;;3.08;65.91;94519.81;5080955;28;20512;-70
2023/04/05 02:22:08;;;;;;;2.73;2.63;;;3.30;99.90;;;3.10;65.85;94514.50;5074533;28;20460;-57
2023/04/05 02:24:35;;;;;;;3.20;3.00;;;3.40;99.90;;;3.11;65.93;94524.81;5072802;28;20447;-58
2023/04/05 02:27:03;;;;;;;2.30;2.20;;;3.40;99.90;;;3.12;66.02;94526.47;5076527;28;20470;-57
2023/04/05 02:29:30;;;;;;;2.70;2.60;;;3.40;99.90;;;3.13;65.16;94522.09;5079718;28;20450;-58
2023/04/05 02:31:58;;;;;;;2.93;2.83;;;3.40;99.90;;;3.14;65.47;94523.78;5073644;28;20470;-56
2023/04/05 02:34:26;;;;;;;3.00;2.80;;;3.40;99.90;;;3.13;65.05;94519.50;5073541;28;20509;-56
2023/04/05 02:36:53;;;;;;;3.10;2.90;;;3.40;99.90;;;3.14;65.15;94523.78;5076998;28;20582;-57
2023/04/05 02:39:22;;;;;;;3.10;2.73;;;3.40;99.90;;;3.11;65.35;94524.81;5074224;28;20510;-57
2023/04/05 02:41:49;;;;;;;2.87;2.67;;;3.40;99.90;;;3.11;65.86;94523.97;5083045;28;20504;-68
2023/04/05 02:44:17;;;;;;;3.70;3.50;;;3.40;99.90;;;3.12;65.17;94520.47;5078708;28;20478;-63
2023/04/05 02:46:44;;;;;;;3.10;2.90;;;3.40;99.90;;;3.11;64.92;94518.78;5080189;28;20482;-70
2023/04/05 02:49:11;;;;;;;3.33;3.10;;;3.40;99.90;;;3.11;65.99;94526.56;5074976;28;20480;-57
2023/04/05 02:51:38;;;;;;;3.00;2.87;;;3.40;99.90;;;3.10;65.12;94517.97;5074370;28;20451;-69
2023/04/05 02:54:06;;;;;;;2.70;2.60;;;3.40;99.90;;;3.09;65.76;94505.91;5077884;28;20499;-56
2023/04/05 02:56:35;;;;;;;3.43;3.20;;;3.40;99.90;;;3.11;66.08;94514.41;5080853;28;20467;-69
2023/04/05 02:59:03;;;;;;;4.00;3.70;;;3.40;99.90;;;3.14;65.87;94513.38;5081031;28;20458;-70
2023/04/05 03:01:31;;;;;;;3.03;2.87;;;3.40;99.90;;;3.15;65.29;94515.88;5083848;28;20953;-70
2023/04/05 03:04:00;;;;;;;2.80;2.60;;;3.40;99.90;;;3.15;65.28;94510.69;5080071;28;20479;-72
2023/04/05 03:06:27;;;;;;;3.57;3.37;;;3.40;99.90;;;3.17;65.84;94513.19;5081993;28;20461;-57
2023/04/05 03:08:56;;;;;;;3.20;2.97;;;3.40;99.90;;;3.14;65.46;94514.19;5081780;28;20982;-68
2023/04/05 03:11:23;;;;;;;3.43;3.23;;;3.40;99.90;;;3.13;65.69;94516.91;5083739;28;20514;-69
2023/04/05 03:13:52;;;;;;;3.73;3.53;;;3.40;99.90;;;3.14;65.60;94518.56;5080741;28;21022;-69
2023/04/05 03:16:20;;;;;;;2.73;2.53;;;3.40;99.90;;;3.14;65.56;94514.19;5082655;28;20454;-69
2023/04/05 03:18:47;;;;;;;3.43;3.20;;;3.40;99.90;;;3.14;65.12;94516.81;5070276;28;20470;-69
2023/04/05 03:21:16;;;;;;;3.10;3.00;;;3.40;99.90;;;3.13;65.43;94507.38;5084141;28;20828;-57
2023/04/05 03:23:45;;;;;;;2.40;2.30;;;3.40;99.90;;;3.12;65.67;94513.47;5074964;28;20493;-58
2023/04/05 03:26:13;;;;;;;3.10;2.80;;;3.40;99.90;;;3.13;65.47;94507.38;5086982;28;20909;-69
2023/04/05 03:28:43;;;;;;;2.77;2.67;;;3.40;99.90;;;3.14;65.45;94509.00;5081246;28;20466;-68
2023/04/05 03:31:12;;;;;;;3.77;3.43;;;3.40;99.90;;;3.16;65.57;94516.69;5078119;28;20442;-68
2023/04/05 03:33:39;;;;;;;2.30;2.20;;;3.40;99.90;;;3.14;65.58;94514.19;5076133;28;20489;-57
2023/04/05 03:36:08;;;;;;;3.53;3.33;;;3.40;99.90;;;3.13;65.41;94511.72;5070721;28;20446;-55
2023/04/05 03:38:36;;;;;;;2.80;2.70;;;3.40;99.90;;;3.12;65.14;94516.09;5073866;28;20919;-69
2023/04/05 03:41:03;;;;;;;3.80;3.50;;;3.40;99.90;;;3.11;65.16;94508.38;5080618;28;20454;-68
2023/04/05 03:43:31;;;;;;;3.40;3.10;;;3.40;99.90;;;3.12;65.13;94510.88;5076083;28;20482;-57
2023/04/05 03:45:59;;;;;;;2.83;2.73;;;3.40;99.90;;;3.13;66.06;94517.75;5078721;28;20467;-57
2023/04/05 03:48:27;;;;;;;3.00;2.80;;;3.40;99.90;;;3.16;66.57;94520.16;5079836;28;20994;-57
2023/04/05 03:50:55;;;;;;;7.97;3.50;;;3.40;99.90;;;3.18;65.45;94520.03;5079224;28;20965;-72
2023/04/05 03:53:22;;;;;;;3.23;3.03;;;3.40;99.90;;;3.20;66.13;94524.19;5080064;28;20485;-70
2023/04/05 03:55:53;;;;;;;3.40;3.20;;;3.50;99.90;;;3.24;65.76;94522.22;5075714;28;20459;-71
2023/04/05 03:58:20;;;;;;;3.10;2.90;;;3.50;99.90;;;3.24;65.32;94524.81;5081836;28;20500;-59
2023/04/05 04:00:48;;;;;;;2.70;2.53;;;3.50;99.90;;;3.27;65.23;94528.97;5077654;28;20453;-58
2023/04/05 04:03:15;;;;;;;3.20;3.00;;;3.50;99.90;;;3.28;65.52;94539.25;5078130;28;20530;-57
2023/04/05 04:05:44;;;;;;;3.63;3.43;;;3.50;99.90;;;3.32;66.86;94532.09;5076789;28;21318;-58
2023/04/05 04:08:11;;;;;;;3.80;3.60;;;3.60;99.90;;;3.39;66.50;94541.97;5080571;28;20579;-58
2023/04/05 04:10:39;;;;;;;2.90;2.80;;;3.60;99.90;;;3.45;65.83;94542.50;5086011;28;20454;-69
2023/04/05 04:13:06;;;;;;;2.60;2.50;;;3.70;99.90;;;3.54;67.05;94545.28;5079603;28;20658;-57
2023/04/05 04:15:33;;;;;;;2.20;2.10;;;3.70;99.90;;;3.65;67.84;94541.13;5077078;28;20439;-57
2023/04/05 04:18:01;;;;;;;2.00;1.90;;;3.80;99.90;;;3.72;66.56;94540.59;5079787;28;20481;-70
2023/04/05 04:20:28;;;;;;;3.33;3.03;;;3.90;99.90;;;3.76;67.38;94549.00;5080652;28;20453;-57
2023/04/05 04:22:58;;;;;;;2.70;2.50;;;4.00;99.90;;;3.84;66.65;94548.47;5077509;28;20474;-71
2023/04/05 04:25:29;;;;;;;3.00;2.90;;;4.00;99.90;;;3.89;66.49;94549.81;5082602;28;20458;-56
2023/04/05 04:27:57;;;;;;;1.80;1.70;;;4.10;99.90;;;3.94;66.49;94546.91;5083523;28;20487;-55
2023/04/05 04:30:24;;;;;;;2.70;2.50;;;4.10;99.90;;;3.96;66.39;94550.22;5081048;28;21321;-58
2023/04/05 04:32:53;;;;;;;2.10;1.90;;;4.20;99.90;;;3.99;66.54;94530.97;5079575;28;20545;-71
2023/04/05 04:35:23;;;;;;;3.67;1.80;;;4.20;99.90;;;4.05;65.31;94540.94;5083055;28;21042;-58
2023/04/05 04:37:57;;;;;;;1.93;1.83;;;4.30;99.90;;;4.03;64.43;94545.41;5078296;28;20470;-57
2023/04/05 04:40:28;;;;;;;2.07;1.97;;;4.30;99.90;;;3.96;64.44;94545.00;5084917;28;20470;-71
2023/04/05 04:42:57;;;;;;;1.97;1.87;;;4.20;99.90;;;3.92;64.45;94554.00;5079818;28;20936;-71
2023/04/05 04:45:25;;;;;;;1.70;1.60;;;4.10;99.90;;;3.88;63.91;94544.72;5084812;28;21165;-72
2023/04/05 04:47:53;;;;;;;1.57;1.47;;;4.10;99.90;;;3.83;63.73;94552.84;5080702;28;20572;-69
2023/04/05 04:50:21;;;;;;;8.30;1.97;;;4.10;99.90;;;3.80;64.17;94555.66;5082355;28;20453;-67
2023/04/05 04:52:48;;;;;;;2.20;2.10;;;4.00;99.90;;;3.79;64.44;94551.38;5080864;28;20494;-70
2023/04/05 04:55:17;;;;;;;2.30;1.90;;;4.00;99.90;;;3.76;63.92;94557.66;5084742;28;20446;-70
2023/04/05 04:57:45;;;;;;;3.60;3.23;;;4.00;99.90;;;3.74;64.28;94554.31;5087702;28;20469;-56
2023/04/05 05:00:14;;;;;;;6.77;4.33;;;4.00;99.90;;;3.73;64.31;94559.63;5081582;28;20446;-58
2023/04/05 05:02:42;;;;;;;2.40;2.27;;;4.00;99.90;;;3.70;64.53;94560.69;5080948;28;20478;-69
2023/04/05 05:05:10;;;;;;;3.80;3.30;;;4.00;99.90;;;3.70;63.76;94557.22;5083912;28;20515;-68
2023/04/05 05:07:39;;;;;;;1.80;1.70;;;3.90;99.90;;;3.67;64.26;94552.25;5082641;28;20496;-69
2023/04/05 05:10:07;;;;;;;1.30;1.20;;;3.90;99.90;;;3.65;64.24;94548.91;5081579;28;20484;-57
2023/04/05 05:12:37;;;;;;;1.40;1.30;;;3.90;99.90;;;3.61;63.90;94553.50;5086930;28;20479;-57
2023/04/05 05:15:05;;;;;;;1.30;1.20;;;3.90;99.90;;;3.58;64.04;94551.94;5079887;28;20493;-67
2023/04/05 05:17:33;;;;;;;1.50;1.40;;;3.80;99.90;;;3.54;63.78;94555.69;5082493;28;20474;-66
2023/04/05 05:20:01;;;;;;;2.87;1.90;;;3.80;99.90;;;3.52;64.00;94554.16;5080049;28;20840;-59
2023/04/05 05:22:28;;;;;;;2.87;2.73;;;3.80;99.90;;;3.45;64.31;94566.72;5082008;28;20485;-69
2023/04/05 05:24:55;;;;;;;2.90;2.47;;;3.70;99.90;;;3.50;64.47;94563.78;5080230;28;20489;-56
2023/04/05 05:27:23;;;;;;;2.70;2.50;;;3.70;99.90;;;3.52;64.56;94572.34;5082391;28;20481;-58
2023/04/05 05:29:51;;;;;;;1.93;1.83;;;3.80;99.90;;;3.49;64.05;94570.78;5080366;28;20465;-69
2023/04/05 05:32:19;;;;;;;1.93;1.83;;;3.70;99.90;;;3.48;63.92;94569.09;5087475;28;20476;-67
2023/04/05 05:34:47;;;;;;;2.70;2.60;;;3.70;99.90;;;3.46;64.26;94565.78;5075052;28;20482;-58
2023/04/05 05:37:15;;;;;;;1.13;1.03;;;3.70;99.90;;;3.49;64.74;94573.38;5079455;28;21474;-69
2023/04/05 05:39:43;;;;;;;1.60;1.50;;;3.70;99.90;;;3.50;64.40;94569.00;5080251;28;21345;-69
2023/04/05 05:42:10;;;;;;;1.53;1.43;;;3.70;99.90;;;3.54;63.93;94567.84;5085212;28;20504;-68
2023/04/05 05:44:38;;;;;;;1.70;1.60;;;3.80;99.90;;;3.58;64.42;94570.16;5079793;28;20975;-71
2023/04/05 05:47:06;;;;;;;1.47;1.37;;;3.80;99.90;;;3.62;64.13;94569.94;5081982;28;20470;-57
2023/04/05 05:49:34;;;;;;;2.70;2.50;;;3.90;99.90;;;3.66;64.18;94566.19;5078659;28;20449;-67
2023/04/05 05:52:01;;;;;;;1.53;1.43;;;3.90;99.90;;;3.70;63.84;94571.09;5082192;28;20554;-56
2023/04/05 05:54:28;;;;;;;2.60;2.40;;;3.90;99.90;;;3.76;65.67;94565.47;5081389;28;20486;-58
2023/04/05 05:56:56;;;;;;;2.80;2.67;;;4.00;99.90;;;3.91;66.15;94578.34;5081061;28;20467;-58
2023/04/05 05:59:23;;;;;;;2.23;2.03;;;4.10;99.90;;;4.02;65.29;94565.41;5078450;28;20949;-58
2023/04/05 06:01:51;;;;;;;2.10;1.93;;;4.20;99.90;;;4.13;64.78;94559.44;5081644;28;20481;-70
2023/04/05 06:04:19;;;;;;;1.63;1.50;;;4.30;99.90;;;4.23;63.69;94565.66;5080856;28;20449;-70
2023/04/05 06:06:47;;;;;;;1.30;1.20;;;4.40;99.90;;;4.29;63.10;94560.03;5082853;28;20834;-71
2023/04/05 06:09:15;;;;;;;1.30;1.20;;;4.50;99.90;;;4.33;61.75;94570.22;5079501;28;20977;-69
2023/04/05 06:11:42;;;;;;;1.57;1.47;;;4.50;99.20;;;4.33;61.65;94559.81;5080586;28;20482;-57
2023/04/05 06:14:10;;;;;;;1.40;1.30;;;4.60;99.20;;;4.34;62.41;94571.84;5081770;28;20493;-58
2023/04/05 06:16:37;;;;;;;2.10;1.90;;;4.60;99.60;;;4.34;62.10;94567.50;5079192;28;20635;-69
2023/04/05 06:19:05;;;;;;;1.63;1.53;;;4.60;99.30;;;4.35;61.59;94570.94;5081503;28;20473;-68
2023/04/05 06:21:34;;;;;;;1.40;1.30;;;4.60;99.20;;;4.35;61.94;94574.34;5078891;28;20464;-57
2023/04/05 06:24:01;;;;;;;1.47;1.37;;;4.60;99.30;;;4.38;61.40;94578.53;5080632;28;20453;-58
2023/04/05 06:26:29;;;;;;;1.60;1.50;;;4.60;99.10;;;4.39;61.59;94575.00;5078230;28;20443;-68
2023/04/05 06:28:56;;;;;;;1.33;1.23;;;4.60;99.10;;;4.41;60.71;94573.09;5081448;28;20454;-56
2023/04/05 06:31:27;;;;;;;1.33;1.20;;;4.60;98.50;;;4.41;61.34;94581.72;5078157;28;20458;-69
2023/04/05 06:33:55;;;;;;;2.70;2.50;;;4.60;98.70;;;4.45;61.71;94585.78;5074870;28;21037;-69
2023/04/05 06:36:22;;;;;;;2.07;1.97;;;4.70;99.10;;;4.50;61.48;94582.84;5072547;28;20530;-71
2023/04/05 06:38:52;;;;;;;2.80;1.43;;;4.70;98.90;;;4.54;61.21;94586.91;5081950;28;20950;-68
2023/04/05 06:41:19;;;;;;;1.27;1.17;;;4.80;98.80;;;4.55;60.78;94579.91;5080508;28;20449;-57
2023/04/05 06:43:47;;;;;;;1.00;0.90;;;4.70;98.40;;;4.59;60.79;94586.56;5082958;28;20859;-68
2023/04/05 06:46:14;;;;;;;2.33;1.27;;;4.80;98.20;;;4.63;59.90;94593.22;5080925;28;21012;-70
2023/04/05 06:48:43;;;;;;;1.33;1.23;;;4.80;97.90;;;4.66;59.58;94599.06;5084237;28;20981;-68
2023/04/05 06:51:10;;;;;;;2.33;2.23;;;4.90;97.60;;;4.71;60.79;94600.47;5079264;28;20482;-58
2023/04/05 06:53:37;;;;;;;1.53;1.43;;;4.90;98.30;;;4.77;59.82;94603.47;5081756;28;20490;-69
2023/04/05 06:56:07;;;;;;;3.13;1.30;;;5.00;98.00;;;4.83;60.43;94604.78;5079103;28;20457;-58
2023/04/05 06:58:35;;;;;;;1.63;1.47;;;5.00;98.00;;;4.89;60.38;94609.56;5081545;28;20466;-57
2023/04/05 07:01:02;;;;;;;1.37;1.27;;;5.10;98.10;;;4.95;60.43;94609.13;5079265;28;20969;-69
2023/04/05 07:03:31;;;;;;;1.33;1.23;;;5.10;98.10;;;5.06;60.48;94617.94;5079600;28;20935;-57
2023/04/05 07:06:00;;;;;;;1.53;1.43;;;5.20;98.10;;;5.12;60.36;94620.09;5078454;28;20942;-68
2023/04/05 07:08:27;;;;;;;4.30;1.40;;;5.30;98.10;;;5.18;60.90;94630.88;5079961;28;20993;-58
2023/04/05 07:10:55;;;;;;;1.20;1.10;;;5.40;98.20;;;5.23;59.27;94627.94;5078173;28;20449;-55
2023/04/05 07:13:24;;;;;;;1.10;1.00;;;5.40;97.50;;;5.23;59.46;94637.56;5075449;28;20869;-57
2023/04/05 07:15:51;;;;;;;1.30;1.20;;;5.40;97.20;;;5.18;58.44;94633.50;5078835;28;20465;-57
2023/04/05 07:18:19;;;;;;;1.70;1.60;;;5.40;96.50;;;5.13;59.02;94643.44;5078330;28;20469;-56
2023/04/05 07:20:47;;;;;;;1.73;1.33;;;5.30;96.70;;;5.11;58.97;94634.06;5079591;28;20455;-68
2023/04/05 07:23:15;;;;;;;1.97;1.87;;;5.30;96.90;;;5.13;59.18;94640.00;5077945;28;20479;-57
2023/04/05 07:25:42;;;;;;;1.40;1.30;;;5.30;96.90;;;5.13;59.39;94633.00;5082612;28;20515;-68
2023/04/05 07:28:10;;;;;;;1.80;1.70;;;5.40;97.00;;;5.13;59.06;94642.63;5080203;28;20565;-57
2023/04/05 07:30:38;;;;;;;1.60;1.50;;;5.30;96.70;;;5.11;59.16;94645.34;5084841;28;20458;-56
2023/04/05 07:33:06;;;;;;;2.00;1.90;;;5.30;96.70;;;5.09;58.84;94649.00;5077243;28;20471;-67
2023/04/05 07:35:33;;;;;;;1.40;1.30;;;5.30;96.50;;;5.07;58.73;94643.06;5076306;28;20494;-57
2023/04/05 07:38:01;;;;;;;1.40;1.30;;;5.30;96.40;;;5.04;58.76;94641.50;5077369;28;20551;-56
2023/04/05 07:40:28;;;;;;;1.03;0.93;;;5.30;96.60;;;5.01;57.65;94639.94;5080768;28;21129;-57
2023/04/05 07:42:55;;;;;;;1.50;1.40;;;5.20;95.70;;;5.00;58.54;94640.91;5078329;28;20891;-58
2023/04/05 07:45:23;;;;;;;1.50;1.40;;;5.20;96.20;;;4.98;58.33;94639.34;5081373;28;20454;-58
2023/04/05 07:47:51;;;;;;;1.50;1.40;;;5.20;96.20;;;4.97;58.68;94648.09;5080470;28;20477;-57
2023/04/05 07:50:19;;;;;;;1.57;1.47;;;5.20;96.20;;;4.97;57.98;94646.34;5086078;28;21025;-67
2023/04/05 07:52:46;;;;;;;1.70;1.60;;;5.20;95.80;;;4.97;58.38;94648.09;5076918;28;20516;-57
2023/04/05 07:55:14;;;;;;;1.30;1.20;;;5.20;96.00;;;4.96;57.32;94659.47;5083422;28;20486;-67
2023/04/05 07:57:41;;;;;;;0.80;0.80;;;5.20;95.30;;;4.91;58.31;94665.03;5081943;28;20478;-58
2023/04/05 08:00:12;;;;;;;1.33;1.23;;;5.20;95.90;;;4.89;58.60;94660.84;5084575;28;20450;-67
2023/04/05 08:02:39;;;;;;;1.30;0.77;;;5.10;96.00;;;4.88;58.10;94670.47;5082591;28;20463;-57
2023/04/05 08:05:08;;;;;;;1.13;1.07;;;5.10;95.80;;;4.87;57.94;94674.00;5084686;28;20445;-69
2023/04/05 08:07:36;;;;;;;1.90;1.53;;;5.10;95.80;;;4.86;58.55;94667.09;5081400;28;20462;-57
2023/04/05 08:10:03;;;;;;;1.30;1.20;;;5.10;96.10;;;4.89;59.04;94677.31;5083899;28;20450;-67
2023/04/05 08:12:31;;;;;;;1.43;1.33;;;5.10;96.50;;;4.90;58.59;94670.34;5084282;28;20474;-56
2023/04/05 08:14:58;;;;;;;1.37;1.27;;;5.10;96.50;;;4.93;58.78;94670.13;5081102;28;20513;-66
2023/04/05 08:17:27;;;;;;;1.60;1.50;;;5.10;96.30;;;4.96;58.12;94675.13;5083231;28;20591;-57
2023/04/05 08:19:54;;;;;;;1.53;1.20;;;5.20;95.80;;;4.91;58.69;94678.06;5080925;28;20489;-68
2023/04/05 08:22:23;;;;;;;1.77;1.67;;;5.20;96.00;;;4.92;58.86;94679.69;5082856;28;20481;-58
2023/04/05 08:24:50;;;;;;;1.73;1.63;;;5.10;96.40;;;4.91;59.09;94680.66;5074111;28;20451;-69
2023/04/05 08:27:18;;;;;;;2.07;1.80;;;5.10;96.30;;;4.92;58.63;94684.91;5084133;28;20557;-67
2023/04/05 08:29:45;;;;;;;1.70;1.60;;;5.10;96.10;;;4.93;58.93;94689.19;5081733;28;20530;-65
2023/04/05 08:32:13;;;;;;;1.20;1.10;;;5.10;96.30;;;4.94;58.07;94683.03;5082564;28;20981;-58
2023/04/05 08:34:40;;;;;;;1.37;1.27;;;5.20;95.90;;;4.95;57.84;94687.28;5081180;28;20982;-68
2023/04/05 08:37:07;;;;;;;2.10;1.97;;;5.20;95.50;;;4.93;58.29;94683.97;5079875;28;20469;-69
2023/04/05 08:39:36;;;;;;;1.70;1.60;;;5.20;95.90;;;4.91;58.07;94685.03;5080899;28;20450;-57
2023/04/05 08:42:08;;;;;;;1.53;1.43;;;5.10;95.50;;;4.90;57.97;94689.41;5089242;28;20804;-57
2023/04/05 08:44:37;;;;;;;1.23;1.13;;;5.10;95.50;;;4.91;58.56;94695.44;5081484;28;20474;-57
2023/04/05 08:47:05;;;;;;;1.37;1.27;;;5.10;96.00;;;4.92;58.61;94692.72;5084052;28;20552;-58
2023/04/05 08:49:33;;;;;;;1.33;1.23;;;5.10;96.20;;;4.94;58.52;94700.44;5080444;28;20453;-56
2023/04/05 08:52:01;;;;;;;1.47;1.37;;;5.20;96.10;;;4.95;58.62;94692.50;5083755;28;20498;-67
2023/04/05 08:54:28;;;;;;;1.77;1.40;;;5.20;96.10;;;4.98;59.04;94697.50;5080129;28;20521;-68
2023/04/05 08:56:58;;;;;;;5.80;1.70;;;5.20;96.50;;;5.02;58.85;94700.75;5082048;28;20466;-68
2023/04/05 08:59:25;;;;;;;1.90;1.80;;;5.20;96.40;;;5.09;58.65;94703.72;5080484;28;20531;-57
2023/04/05 09:01:53;;;;;;;3.40;1.50;;;5.30;96.30;;;5.14;58.39;94701.63;5077051;28;20463;-57
2023/04/05 09:04:23;;;;;;;1.90;1.80;;;5.30;95.90;;;5.16;57.01;94704.97;5081833;28;20941;-67
2023/04/05 09:06:50;;;;;;;1.83;1.73;;;5.40;95.20;;;5.16;57.83;94711.00;5082988;28;20473;-58
2023/04/05 09:09:18;;;;;;;1.33;1.23;;;5.40;95.60;;;5.16;57.81;94715.38;5080900;28;20485;-57
2023/04/05 09:11:46;;;;;;;2.47;2.37;;;5.40;95.60;;;5.15;58.55;94711.94;5080430;28;20471;-69
2023/04/05 09:14:14;;;;;;;2.10;2.00;;;5.40;96.20;;;5.16;58.53;94715.38;5082870;28;21100;-68
2023/04/05 09:16:42;;;;;;;2.10;2.00;;;5.40;96.00;;;5.18;57.93;94713.50;5081638;28;20445;-58
2023/04/05 09:19:10;;;;;;;1.77;1.53;;;5.40;95.70;;;5.23;57.26;94713.16;5080791;28;20600;-70
2023/04/05 09:22:00;;;;;;;2.17;1.97;;;5.40;95.10;;;5.25;57.60;94719.94;5079625;28;20509;-58
2023/04/05 09:24:35;;;;;;;1.90;1.80;;;5.40;95.40;;;5.29;57.98;94713.53;5081070;28;20899;-67
2023/04/05 09:27:07;;;;;;;3.00;2.80;;;5.50;95.70;;;5.33;57.48;94716.75;5077467;28;20470;-57
2023/04/05 09:29:36;;;;;;;1.87;1.77;;;5.50;95.30;;;5.34;57.23;94714.03;5082465;28;20458;-70
2023/04/05 09:32:03;;;;;;;1.70;1.60;;;5.60;95.00;;;5.37;57.28;94715.59;5078500;28;20470;-58
2023/04/05 09:34:31;;;;;;;11.73;2.47;;;5.60;95.10;;;5.39;56.80;94705.88;5079570;28;20582;-58
2023/04/05 09:36:59;;;;;;;2.20;2.03;;;5.60;94.50;;;5.33;56.58;94709.78;5078136;28;20490;-67
2023/04/05 09:39:31;;;;;;;2.43;2.33;;;5.60;94.50;;;5.27;57.48;94707.63;5080291;28;20478;-67
2023/04/05 09:42:06;;;;;;;2.47;2.37;;;5.50;94.80;;;5.27;57.64;94715.44;5084421;28;20476;-57
2023/04/05 09:45:01;;;;;;;2.27;2.10;;;5.50;95.10;;;5.32;57.10;94712.50;5080066;28;20842;-68
2023/04/05 09:47:31;;;;;;;2.73;2.20;;;5.50;95.10;;;5.32;57.07;94704.66;5063060;28;20468;-67
2023/04/05 09:49:58;;;;;;;1.70;1.60;;;5.50;94.50;;;5.32;56.80;94708.09;5081644;28;20888;-59
2023/04/05 09:52:27;;;;;;;2.57;2.47;;;5.60;94.30;;;5.30;56.31;94701.31;5079222;28;20485;-67
2023/04/05 09:54:56;;;;;;;18.47;2.70;;;5.50;93.70;;;5.25;55.57;94709.50;5082565;28;20871;-57
2023/04/05 09:57:25;;;;;;;7.63;3.07;;;5.50;93.10;;;5.20;55.79;94716.81;5083993;28;20493;-57
2023/04/05 09:59:52;;;;;;;2.23;2.13;;;5.40;93.20;;;5.13;55.56;94716.44;5084511;28;20548;-68
2023/04/05 10:02:21;;;;;;;7.47;2.30;;;5.40;93.20;;;5.11;55.29;94710.50;5081162;28;20485;-57
2023/04/05 10:04:49;;;;;;;3.30;3.00;;;5.40;92.90;;;5.10;55.73;94706.22;5080733;28;20454;-58
2023/04/05 10:07:17;;;;;;;3.20;3.00;;;5.40;93.40;;;5.16;56.33;94705.78;5079222;28;20830;-58
2023/04/05 10:09:45;;;;;;;3.47;3.17;;;5.40;93.80;;;5.25;56.39;94712.13;5080816;28;20461;-67
2023/04/05 10:12:18;;;;;;;2.83;2.63;;;5.40;93.90;;;5.34;55.88;94710.59;5078856;28;20463;-67
2023/04/05 10:14:45;;;;;;;2.53;2.43;;;5.50;93.80;;;5.43;55.58;94711.72;5083156;28;20470;-58
2023/04/05 10:17:15;;;;;;;3.00;2.80;;;5.60;93.50;;;5.53;54.71;94704.84;5078433;28;20474;-57
2023/04/05 10:20:02;;;;;;;3.77;3.47;;;5.70;93.10;;;5.65;54.64;94705.72;5080581;28;20488;-57
2023/04/05 10:22:33;;;;;;;3.50;3.20;;;5.80;93.10;;;5.78;55.40;94703.88;5083792;28;20916;-67
2023/04/05 10:25:05;;;;;;;8.37;3.57;;;5.90;93.20;;;5.90;55.25;94715.16;5077548;28;20446;-64
2023/04/05 10:27:37;;;;;;;3.17;2.90;;;6.10;93.20;;;5.92;54.14;94708.88;5083382;28;20482;-67
2023/04/05 10:30:07;;;;;;;3.30;3.10;;;6.10;92.10;;;5.99;54.07;94709.28;5078703;28;21009;-58
2023/04/05 10:33:07;;;;;;;3.47;3.27;;;6.20;92.30;;;6.14;54.18;94701.25;5080440;28;20550;-58
2023/04/05 10:35:47;;;;;;;2.77;2.57;;;6.20;92.50;;;6.26;52.84;94706.34;5047259;28;20486;-67
2023/04/05 10:38:21;;;;;;;3.43;3.20;;;6.40;91.20;;;6.34;53.41;94708.38;5079731;28;20588;-58
2023/04/05 10:40:49;;;;;;;3.53;3.33;;;6.50;90.90;;;6.40;53.36;94712.31;5078021;28;20441;-56